Lake Hughes, CA (93532)

5:24 AM PDT on September 02, 2014 (GMT -0700)
TWDY | Change Station
CLOSE
Current Station
Personal Weather Station
Location: Lake Hughes, CA
Elevation: 3885 ft
Nearby Weather Stations

Elev 3885 ft 34.72 °N, 118.59 °W | Updated 1 minute ago

Clear
Clear
72.2 °F
Feels Like 76 °F
N
2.0
Wind Variable Wind from ENE
Gusts 6.0 mph

Today
High -- | Low -- °F
--% Chance of Precip.
Yesterday
High -- | Low -- °F
Precip. -- in
6:27 AM 7:19 PM
Waxing Crescent, 51% visible
Pressure 29.83 in
Visibility 10.0 miles
Clouds Clear
Heat Index 76 °F
Dew Point 36 °F
Humidity 27%
Rainfall 0.00 in
Snow Depth Not available.
UV 0 out of 12
Pollen 7.00 out of 12
Ozone Good
PM2.5 Moderate
Flu Activity Not available.
METAR KSDB 021148Z AUTO 21006KT 10SM CLR 21/M04 A3001 RMK AO2 SLP099 T02111039 10239 20211 56002

More Conditions Fewer Conditions

Pressure 29.83 in
Visibility 10.0 miles
Clouds Clear
Heat Index 76 °F
Dew Point 36 °F
Humidity 27%
Rainfall 0.00 in
Snow Depth Not available.
UV 0 out of 12
Pollen 7.00 out of 12
Ozone Good
PM2.5 Moderate
Flu Activity Not available.
METAR KSDB 021148Z AUTO 21006KT 10SM CLR 21/M04 A3001 RMK AO2 SLP099 T02111039 10239 20211 56002

More Conditions Fewer Conditions

10-Day Weather Forecast

Almanac

Astronomy

Sep. 02, 2014 Rise Set
Actual Time 6:27 AM PDT 7:19 PM PDT
Civil Twilight 6:02 AM PDT 7:44 PM PDT
Nautical Twilight 5:31 AM PDT 8:15 PM PDT
Astronomical Twilight 5:00 AM PDT 8:46 PM PDT
Moon 1:59 PM PDT No Moon Set
Length of Visible Light 13h 42m
Length of Day
12h 51m
Tomorrow will be 2m 6s shorter.
Waxing Crescent, 51% of the Moon is Illuminated
Today
Waxing Crescent
Sep 8
Full
Sep 15
Last Quarter
Sep 24
New
Oct 1
First Quarter

Today's Extremes

State Highs State Lows

Community

WunderPhotos

Upload Photos

1,749,639 photos uploaded!

WunderBlogs® & News

By Dr. Jeff Masters
Director of Meteorology, Weather Underground
By Kari Strenfel
Meteorologist, Weather Underground
By Christopher C. Burt
Weather Historian, Weather Underground
September 2, 2014
September 2, 2014
September 2, 2014

Nearby

Air Quality

  Air Quality AQ Index Pollutant
Yesterday Unhealthy for Sensitive Groups
OZONE
Yesterday Moderate
PM2.5
Current Moderate
PM2.5
Current Good
OZONE
Tuesday Unhealthy for Sensitive Groups
OZONE
Tuesday Good
PM10
Tuesday Good
CO
Tuesday Good
NO2

Snow Depth

Station Depth Elevation
Leavitt Lake 0 in 9400 ft
Leavitt Meadows 1 in 7200 ft
Summit Meadow 1 in 9122 ft
Blue Lakes 0 in 8000 ft
Monitor Pass 0 in 8350 ft

Earthquake Activity

City Distance Mag. Time & Date
Malibu, California 74 miles 2.5 8:11 AM PDT
2014-08-30
Minimum magnitude displayed is 2.5.

Coastal Water Temperatures

Place Temperature
No Stations Reporting

Nearby Weather Stations